sensor_id;sensor_type;location;lat;lon;timestamp;P1;durP1;ratioP1;P2;durP2;ratioP2
48835;SDS011;62581;47.342;7.908;2022-09-21T00:02:10;2.70;;;1.80;;
48835;SDS011;62581;47.342;7.908;2022-09-21T00:04:37;7.95;;;2.33;;
48835;SDS011;62581;47.342;7.908;2022-09-21T00:07:04;4.97;;;1.95;;
48835;SDS011;62581;47.342;7.908;2022-09-21T00:09:31;5.20;;;1.88;;
48835;SDS011;62581;47.342;7.908;2022-09-21T00:11:59;4.13;;;2.22;;
48835;SDS011;62581;47.342;7.908;2022-09-21T00:14:27;7.40;;;2.13;;
48835;SDS011;62581;47.342;7.908;2022-09-21T00:16:55;4.35;;;1.83;;
48835;SDS011;62581;47.342;7.908;2022-09-21T00:19:22;3.35;;;1.85;;
48835;SDS011;62581;47.342;7.908;2022-09-21T00:21:52;3.63;;;1.77;;
48835;SDS011;62581;47.342;7.908;2022-09-21T00:24:19;3.80;;;2.00;;
48835;SDS011;62581;47.342;7.908;2022-09-21T00:26:46;4.13;;;2.15;;
48835;SDS011;62581;47.342;7.908;2022-09-21T00:29:15;4.38;;;2.13;;
48835;SDS011;62581;47.342;7.908;2022-09-21T00:31:42;5.25;;;2.25;;
48835;SDS011;62581;47.342;7.908;2022-09-21T00:34:08;3.90;;;2.00;;
48835;SDS011;62581;47.342;7.908;2022-09-21T00:36:35;4.68;;;2.13;;
48835;SDS011;62581;47.342;7.908;2022-09-21T00:39:03;4.75;;;2.00;;
48835;SDS011;62581;47.342;7.908;2022-09-21T00:41:30;7.75;;;2.15;;
48835;SDS011;62581;47.342;7.908;2022-09-21T00:44:20;5.13;;;2.00;;
48835;SDS011;62581;47.342;7.908;2022-09-21T00:46:54;2.35;;;1.77;;
48835;SDS011;62581;47.342;7.908;2022-09-21T00:49:23;2.67;;;1.77;;
48835;SDS011;62581;47.342;7.908;2022-09-21T00:51:52;4.90;;;2.20;;
48835;SDS011;62581;47.342;7.908;2022-09-21T00:54:24;7.47;;;2.03;;
48835;SDS011;62581;47.342;7.908;2022-09-21T00:56:54;6.40;;;2.05;;
48835;SDS011;62581;47.342;7.908;2022-09-21T00:59:27;7.20;;;2.03;;
48835;SDS011;62581;47.342;7.908;2022-09-21T01:01:57;5.35;;;2.05;;
48835;SDS011;62581;47.342;7.908;2022-09-21T01:04:24;4.93;;;2.10;;
48835;SDS011;62581;47.342;7.908;2022-09-21T01:06:53;6.43;;;2.00;;
48835;SDS011;62581;47.342;7.908;2022-09-21T01:09:22;5.78;;;2.22;;
48835;SDS011;62581;47.342;7.908;2022-09-21T01:11:52;7.25;;;2.33;;
48835;SDS011;62581;47.342;7.908;2022-09-21T01:14:34;5.40;;;2.20;;
48835;SDS011;62581;47.342;7.908;2022-09-21T01:17:23;8.13;;;2.25;;
48835;SDS011;62581;47.342;7.908;2022-09-21T01:23:06;4.38;;;1.85;;
48835;SDS011;62581;47.342;7.908;2022-09-21T01:25:49;7.95;;;2.00;;
48835;SDS011;62581;47.342;7.908;2022-09-21T01:28:26;5.25;;;2.15;;
48835;SDS011;62581;47.342;7.908;2022-09-21T01:31:07;7.80;;;2.50;;
48835;SDS011;62581;47.342;7.908;2022-09-21T01:33:41;8.30;;;2.55;;
48835;SDS011;62581;47.342;7.908;2022-09-21T01:36:13;4.60;;;2.17;;
48835;SDS011;62581;47.342;7.908;2022-09-21T01:38:43;5.63;;;2.00;;
48835;SDS011;62581;47.342;7.908;2022-09-21T01:41:14;3.65;;;2.30;;
48835;SDS011;62581;47.342;7.908;2022-09-21T01:43:45;5.38;;;2.05;;
48835;SDS011;62581;47.342;7.908;2022-09-21T01:46:18;4.88;;;1.90;;
48835;SDS011;62581;47.342;7.908;2022-09-21T01:48:49;4.63;;;2.20;;
48835;SDS011;62581;47.342;7.908;2022-09-21T01:51:19;4.57;;;1.73;;
48835;SDS011;62581;47.342;7.908;2022-09-21T01:53:50;5.22;;;2.58;;
48835;SDS011;62581;47.342;7.908;2022-09-21T01:56:20;4.15;;;2.00;;
48835;SDS011;62581;47.342;7.908;2022-09-21T01:58:51;3.80;;;1.95;;
48835;SDS011;62581;47.342;7.908;2022-09-21T02:01:26;4.55;;;2.08;;
48835;SDS011;62581;47.342;7.908;2022-09-21T02:03:58;6.55;;;2.00;;
48835;SDS011;62581;47.342;7.908;2022-09-21T02:06:29;5.07;;;1.95;;
48835;SDS011;62581;47.342;7.908;2022-09-21T02:08:56;5.30;;;1.80;;
48835;SDS011;62581;47.342;7.908;2022-09-21T02:11:23;4.32;;;2.15;;
48835;SDS011;62581;47.342;7.908;2022-09-21T02:13:51;11.38;;;2.95;;
48835;SDS011;62581;47.342;7.908;2022-09-21T02:16:33;5.78;;;2.50;;
48835;SDS011;62581;47.342;7.908;2022-09-21T02:19:13;5.25;;;2.40;;
48835;SDS011;62581;47.342;7.908;2022-09-21T02:21:54;3.60;;;2.10;;
48835;SDS011;62581;47.342;7.908;2022-09-21T02:24:31;5.07;;;2.13;;
48835;SDS011;62581;47.342;7.908;2022-09-21T02:27:04;6.43;;;2.10;;
48835;SDS011;62581;47.342;7.908;2022-09-21T02:29:39;5.63;;;2.17;;
48835;SDS011;62581;47.342;7.908;2022-09-21T02:32:15;6.03;;;2.22;;
48835;SDS011;62581;47.342;7.908;2022-09-21T02:34:51;6.25;;;2.08;;
48835;SDS011;62581;47.342;7.908;2022-09-21T02:37:27;3.45;;;2.30;;
48835;SDS011;62581;47.342;7.908;2022-09-21T02:40:02;5.10;;;2.50;;
48835;SDS011;62581;47.342;7.908;2022-09-21T02:42:37;3.13;;;2.40;;
48835;SDS011;62581;47.342;7.908;2022-09-21T02:45:07;4.75;;;2.55;;
48835;SDS011;62581;47.342;7.908;2022-09-21T02:47:40;4.28;;;2.30;;
48835;SDS011;62581;47.342;7.908;2022-09-21T02:50:14;7.10;;;2.33;;
48835;SDS011;62581;47.342;7.908;2022-09-21T02:52:45;5.43;;;2.60;;
48835;SDS011;62581;47.342;7.908;2022-09-21T02:55:12;4.10;;;2.08;;
48835;SDS011;62581;47.342;7.908;2022-09-21T02:57:42;9.27;;;2.70;;
48835;SDS011;62581;47.342;7.908;2022-09-21T03:00:13;10.20;;;2.85;;
48835;SDS011;62581;47.342;7.908;2022-09-21T03:02:43;4.78;;;2.53;;
48835;SDS011;62581;47.342;7.908;2022-09-21T03:05:11;5.13;;;2.50;;
48835;SDS011;62581;47.342;7.908;2022-09-21T03:07:40;6.35;;;2.35;;
48835;SDS011;62581;47.342;7.908;2022-09-21T03:10:07;5.85;;;2.63;;
48835;SDS011;62581;47.342;7.908;2022-09-21T03:12:35;3.63;;;2.55;;
48835;SDS011;62581;47.342;7.908;2022-09-21T03:15:02;10.10;;;3.20;;
48835;SDS011;62581;47.342;7.908;2022-09-21T03:17:30;3.77;;;2.30;;
48835;SDS011;62581;47.342;7.908;2022-09-21T03:19:58;9.90;;;2.83;;
48835;SDS011;62581;47.342;7.908;2022-09-21T03:22:25;4.90;;;2.50;;
48835;SDS011;62581;47.342;7.908;2022-09-21T03:24:52;3.58;;;2.55;;
48835;SDS011;62581;47.342;7.908;2022-09-21T03:27:21;4.72;;;2.38;;
48835;SDS011;62581;47.342;7.908;2022-09-21T03:29:49;4.22;;;2.58;;
48835;SDS011;62581;47.342;7.908;2022-09-21T03:32:16;4.72;;;2.65;;
48835;SDS011;62581;47.342;7.908;2022-09-21T03:34:43;5.13;;;2.92;;
48835;SDS011;62581;47.342;7.908;2022-09-21T03:37:12;7.85;;;2.97;;
48835;SDS011;62581;47.342;7.908;2022-09-21T03:39:39;4.95;;;2.42;;
48835;SDS011;62581;47.342;7.908;2022-09-21T03:42:06;8.45;;;2.85;;
48835;SDS011;62581;47.342;7.908;2022-09-21T03:44:34;4.77;;;3.00;;
48835;SDS011;62581;47.342;7.908;2022-09-21T03:47:02;5.43;;;2.80;;
48835;SDS011;62581;47.342;7.908;2022-09-21T03:49:31;8.48;;;2.63;;
48835;SDS011;62581;47.342;7.908;2022-09-21T03:51:58;6.65;;;2.83;;
48835;SDS011;62581;47.342;7.908;2022-09-21T03:54:27;9.73;;;3.63;;
48835;SDS011;62581;47.342;7.908;2022-09-21T03:56:54;7.47;;;2.80;;
48835;SDS011;62581;47.342;7.908;2022-09-21T03:59:21;6.75;;;3.17;;
48835;SDS011;62581;47.342;7.908;2022-09-21T04:01:48;6.65;;;3.25;;
48835;SDS011;62581;47.342;7.908;2022-09-21T04:04:15;5.75;;;2.80;;
48835;SDS011;62581;47.342;7.908;2022-09-21T04:06:42;7.55;;;3.30;;
48835;SDS011;62581;47.342;7.908;2022-09-21T04:09:10;9.38;;;4.05;;
48835;SDS011;62581;47.342;7.908;2022-09-21T04:11:38;12.82;;;4.55;;
48835;SDS011;62581;47.342;7.908;2022-09-21T04:14:06;8.50;;;4.00;;
48835;SDS011;62581;47.342;7.908;2022-09-21T04:16:33;12.73;;;3.83;;
48835;SDS011;62581;47.342;7.908;2022-09-21T04:18:59;8.57;;;4.07;;
48835;SDS011;62581;47.342;7.908;2022-09-21T04:21:27;7.10;;;3.65;;
48835;SDS011;62581;47.342;7.908;2022-09-21T04:23:54;7.88;;;3.90;;
48835;SDS011;62581;47.342;7.908;2022-09-21T04:26:22;8.48;;;4.35;;
48835;SDS011;62581;47.342;7.908;2022-09-21T04:28:52;10.48;;;5.03;;
48835;SDS011;62581;47.342;7.908;2022-09-21T04:31:20;12.82;;;5.35;;
48835;SDS011;62581;47.342;7.908;2022-09-21T04:33:47;15.52;;;6.97;;
48835;SDS011;62581;47.342;7.908;2022-09-21T04:36:15;12.80;;;6.03;;
48835;SDS011;62581;47.342;7.908;2022-09-21T04:38:43;12.73;;;6.22;;
48835;SDS011;62581;47.342;7.908;2022-09-21T04:41:10;11.02;;;5.18;;
48835;SDS011;62581;47.342;7.908;2022-09-21T04:43:40;8.90;;;5.05;;
48835;SDS011;62581;47.342;7.908;2022-09-21T04:46:10;15.10;;;5.20;;
48835;SDS011;62581;47.342;7.908;2022-09-21T04:48:37;13.50;;;5.50;;
48835;SDS011;62581;47.342;7.908;2022-09-21T04:51:05;12.18;;;5.50;;
48835;SDS011;62581;47.342;7.908;2022-09-21T04:53:33;14.77;;;5.85;;
48835;SDS011;62581;47.342;7.908;2022-09-21T04:56:01;18.38;;;6.50;;
48835;SDS011;62581;47.342;7.908;2022-09-21T04:58:29;18.58;;;8.75;;
48835;SDS011;62581;47.342;7.908;2022-09-21T05:00:56;10.00;;;5.43;;
48835;SDS011;62581;47.342;7.908;2022-09-21T05:03:25;12.63;;;7.88;;
48835;SDS011;62581;47.342;7.908;2022-09-21T05:05:52;15.48;;;8.25;;
48835;SDS011;62581;47.342;7.908;2022-09-21T05:08:21;10.23;;;5.70;;
48835;SDS011;62581;47.342;7.908;2022-09-21T05:11:10;15.88;;;8.57;;
48835;SDS011;62581;47.342;7.908;2022-09-21T05:13:37;11.83;;;5.90;;
48835;SDS011;62581;47.342;7.908;2022-09-21T05:16:04;7.05;;;4.38;;
48835;SDS011;62581;47.342;7.908;2022-09-21T05:18:32;9.27;;;4.53;;
48835;SDS011;62581;47.342;7.908;2022-09-21T05:21:00;10.27;;;3.90;;
48835;SDS011;62581;47.342;7.908;2022-09-21T05:23:29;5.25;;;3.42;;
48835;SDS011;62581;47.342;7.908;2022-09-21T05:25:56;7.18;;;3.92;;
48835;SDS011;62581;47.342;7.908;2022-09-21T05:28:25;8.48;;;4.25;;
48835;SDS011;62581;47.342;7.908;2022-09-21T05:30:53;6.47;;;3.60;;
48835;SDS011;62581;47.342;7.908;2022-09-21T05:33:25;10.13;;;4.20;;
48835;SDS011;62581;47.342;7.908;2022-09-21T05:36:00;9.68;;;4.07;;
48835;SDS011;62581;47.342;7.908;2022-09-21T05:38:31;11.30;;;5.25;;
48835;SDS011;62581;47.342;7.908;2022-09-21T05:40:59;14.32;;;5.38;;
48835;SDS011;62581;47.342;7.908;2022-09-21T05:43:26;9.18;;;3.78;;
48835;SDS011;62581;47.342;7.908;2022-09-21T05:45:55;9.52;;;3.95;;
48835;SDS011;62581;47.342;7.908;2022-09-21T05:48:28;7.10;;;4.45;;
48835;SDS011;62581;47.342;7.908;2022-09-21T05:51:03;9.70;;;3.80;;
48835;SDS011;62581;47.342;7.908;2022-09-21T05:53:39;9.02;;;3.78;;
48835;SDS011;62581;47.342;7.908;2022-09-21T05:56:15;6.50;;;4.00;;
48835;SDS011;62581;47.342;7.908;2022-09-21T05:58:55;13.65;;;5.22;;
48835;SDS011;62581;47.342;7.908;2022-09-21T06:01:36;12.85;;;4.60;;
48835;SDS011;62581;47.342;7.908;2022-09-21T06:04:19;9.38;;;4.40;;
48835;SDS011;62581;47.342;7.908;2022-09-21T06:06:48;9.63;;;4.25;;
48835;SDS011;62581;47.342;7.908;2022-09-21T06:09:15;9.70;;;3.97;;
48835;SDS011;62581;47.342;7.908;2022-09-21T06:11:41;4.80;;;3.58;;
48835;SDS011;62581;47.342;7.908;2022-09-21T06:14:08;14.00;;;4.25;;
48835;SDS011;62581;47.342;7.908;2022-09-21T06:16:36;6.70;;;4.30;;
48835;SDS011;62581;47.342;7.908;2022-09-21T06:19:03;8.98;;;4.03;;
48835;SDS011;62581;47.342;7.908;2022-09-21T06:21:30;10.13;;;4.25;;
48835;SDS011;62581;47.342;7.908;2022-09-21T06:23:59;7.53;;;3.90;;
48835;SDS011;62581;47.342;7.908;2022-09-21T06:26:26;12.15;;;4.68;;
48835;SDS011;62581;47.342;7.908;2022-09-21T06:28:53;8.38;;;4.38;;
48835;SDS011;62581;47.342;7.908;2022-09-21T06:31:21;9.30;;;4.57;;
48835;SDS011;62581;47.342;7.908;2022-09-21T06:33:48;7.55;;;4.28;;
48835;SDS011;62581;47.342;7.908;2022-09-21T06:36:15;9.18;;;4.38;;
48835;SDS011;62581;47.342;7.908;2022-09-21T06:38:42;7.25;;;3.53;;
48835;SDS011;62581;47.342;7.908;2022-09-21T06:41:11;13.93;;;4.65;;
48835;SDS011;62581;47.342;7.908;2022-09-21T06:43:38;9.38;;;3.97;;
48835;SDS011;62581;47.342;7.908;2022-09-21T06:46:05;7.55;;;4.15;;
48835;SDS011;62581;47.342;7.908;2022-09-21T06:48:32;10.25;;;3.67;;
48835;SDS011;62581;47.342;7.908;2022-09-21T06:51:01;11.30;;;4.30;;
48835;SDS011;62581;47.342;7.908;2022-09-21T06:53:29;7.65;;;3.78;;
48835;SDS011;62581;47.342;7.908;2022-09-21T06:56:01;9.98;;;4.15;;
48835;SDS011;62581;47.342;7.908;2022-09-21T06:58:31;7.38;;;3.50;;
48835;SDS011;62581;47.342;7.908;2022-09-21T07:01:02;7.70;;;3.90;;
48835;SDS011;62581;47.342;7.908;2022-09-21T07:03:31;8.77;;;5.50;;
48835;SDS011;62581;47.342;7.908;2022-09-21T07:05:58;9.35;;;4.53;;
48835;SDS011;62581;47.342;7.908;2022-09-21T07:08:25;10.30;;;3.65;;
48835;SDS011;62581;47.342;7.908;2022-09-21T07:10:52;8.30;;;4.90;;
48835;SDS011;62581;47.342;7.908;2022-09-21T07:13:19;10.98;;;3.60;;
48835;SDS011;62581;47.342;7.908;2022-09-21T07:15:48;7.90;;;3.58;;
48835;SDS011;62581;47.342;7.908;2022-09-21T07:18:15;5.68;;;3.33;;
48835;SDS011;62581;47.342;7.908;2022-09-21T07:20:42;11.15;;;3.28;;
48835;SDS011;62581;47.342;7.908;2022-09-21T07:23:09;8.98;;;3.60;;
48835;SDS011;62581;47.342;7.908;2022-09-21T07:25:38;6.40;;;3.60;;
48835;SDS011;62581;47.342;7.908;2022-09-21T07:28:06;10.55;;;3.60;;
48835;SDS011;62581;47.342;7.908;2022-09-21T07:30:35;4.00;;;3.08;;
48835;SDS011;62581;47.342;7.908;2022-09-21T07:33:04;6.65;;;3.00;;
48835;SDS011;62581;47.342;7.908;2022-09-21T07:37:58;12.23;;;3.70;;
48835;SDS011;62581;47.342;7.908;2022-09-21T07:40:25;5.95;;;3.50;;
48835;SDS011;62581;47.342;7.908;2022-09-21T07:42:56;6.22;;;3.20;;
48835;SDS011;62581;47.342;7.908;2022-09-21T07:45:23;6.22;;;3.00;;
48835;SDS011;62581;47.342;7.908;2022-09-21T07:47:50;7.88;;;3.38;;
48835;SDS011;62581;47.342;7.908;2022-09-21T07:50:19;4.00;;;2.75;;
48835;SDS011;62581;47.342;7.908;2022-09-21T07:52:47;3.50;;;2.20;;
48835;SDS011;62581;47.342;7.908;2022-09-21T07:55:14;5.68;;;2.97;;
48835;SDS011;62581;47.342;7.908;2022-09-21T07:57:41;7.50;;;2.60;;
48835;SDS011;62581;47.342;7.908;2022-09-21T08:00:25;9.63;;;2.85;;
48835;SDS011;62581;47.342;7.908;2022-09-21T08:02:56;6.38;;;2.78;;
48835;SDS011;62581;47.342;7.908;2022-09-21T08:05:26;4.97;;;2.45;;
48835;SDS011;62581;47.342;7.908;2022-09-21T08:07:54;8.57;;;2.55;;
48835;SDS011;62581;47.342;7.908;2022-09-21T08:10:21;5.15;;;2.35;;
48835;SDS011;62581;47.342;7.908;2022-09-21T08:12:53;9.68;;;2.80;;
48835;SDS011;62581;47.342;7.908;2022-09-21T08:15:21;4.13;;;2.30;;
48835;SDS011;62581;47.342;7.908;2022-09-21T08:17:48;6.97;;;2.60;;
48835;SDS011;62581;47.342;7.908;2022-09-21T08:20:16;4.70;;;2.80;;
48835;SDS011;62581;47.342;7.908;2022-09-21T08:22:45;5.78;;;2.47;;
48835;SDS011;62581;47.342;7.908;2022-09-21T08:25:12;6.63;;;2.67;;
48835;SDS011;62581;47.342;7.908;2022-09-21T08:27:39;7.63;;;2.70;;
48835;SDS011;62581;47.342;7.908;2022-09-21T08:30:07;4.75;;;2.50;;
48835;SDS011;62581;47.342;7.908;2022-09-21T08:32:37;4.68;;;2.20;;
48835;SDS011;62581;47.342;7.908;2022-09-21T08:35:05;6.75;;;2.05;;
48835;SDS011;62581;47.342;7.908;2022-09-21T08:37:33;14.55;;;2.75;;
48835;SDS011;62581;47.342;7.908;2022-09-21T08:40:03;11.52;;;3.60;;
48835;SDS011;62581;47.342;7.908;2022-09-21T08:42:35;6.85;;;3.55;;
48835;SDS011;62581;47.342;7.908;2022-09-21T08:45:10;5.80;;;2.97;;
48835;SDS011;62581;47.342;7.908;2022-09-21T08:47:41;5.28;;;2.22;;
48835;SDS011;62581;47.342;7.908;2022-09-21T08:53:05;6.43;;;2.63;;
48835;SDS011;62581;47.342;7.908;2022-09-21T08:55:38;7.88;;;2.08;;
48835;SDS011;62581;47.342;7.908;2022-09-21T08:58:05;9.00;;;2.50;;
48835;SDS011;62581;47.342;7.908;2022-09-21T09:00:46;5.10;;;2.15;;
48835;SDS011;62581;47.342;7.908;2022-09-21T09:03:22;6.93;;;2.83;;
48835;SDS011;62581;47.342;7.908;2022-09-21T09:05:58;3.47;;;1.90;;
48835;SDS011;62581;47.342;7.908;2022-09-21T09:08:38;6.22;;;2.30;;
48835;SDS011;62581;47.342;7.908;2022-09-21T09:11:35;4.00;;;2.20;;
48835;SDS011;62581;47.342;7.908;2022-09-21T09:14:13;4.28;;;1.77;;
48835;SDS011;62581;47.342;7.908;2022-09-21T09:16:52;4.95;;;2.15;;
48835;SDS011;62581;47.342;7.908;2022-09-21T09:19:31;8.93;;;2.35;;
48835;SDS011;62581;47.342;7.908;2022-09-21T09:22:03;6.80;;;2.63;;
48835;SDS011;62581;47.342;7.908;2022-09-21T09:24:37;4.03;;;2.20;;
48835;SDS011;62581;47.342;7.908;2022-09-21T09:27:11;6.63;;;1.90;;
48835;SDS011;62581;47.342;7.908;2022-09-21T09:29:44;5.22;;;1.83;;
48835;SDS011;62581;47.342;7.908;2022-09-21T09:32:22;6.57;;;2.50;;
48835;SDS011;62581;47.342;7.908;2022-09-21T09:35:00;7.03;;;2.30;;
48835;SDS011;62581;47.342;7.908;2022-09-21T09:37:32;5.13;;;2.20;;
48835;SDS011;62581;47.342;7.908;2022-09-21T09:40:06;5.40;;;1.88;;
48835;SDS011;62581;47.342;7.908;2022-09-21T09:42:37;6.53;;;2.22;;
48835;SDS011;62581;47.342;7.908;2022-09-21T09:45:21;4.78;;;1.80;;
48835;SDS011;62581;47.342;7.908;2022-09-21T09:47:59;4.65;;;2.03;;
48835;SDS011;62581;47.342;7.908;2022-09-21T09:50:34;6.50;;;2.58;;
48835;SDS011;62581;47.342;7.908;2022-09-21T09:53:04;5.82;;;1.95;;
48835;SDS011;62581;47.342;7.908;2022-09-21T09:55:37;5.65;;;2.22;;
48835;SDS011;62581;47.342;7.908;2022-09-21T09:58:15;3.28;;;1.83;;
48835;SDS011;62581;47.342;7.908;2022-09-21T10:00:44;6.47;;;2.35;;
48835;SDS011;62581;47.342;7.908;2022-09-21T10:03:16;7.22;;;2.00;;
48835;SDS011;62581;47.342;7.908;2022-09-21T10:05:44;7.60;;;2.10;;
48835;SDS011;62581;47.342;7.908;2022-09-21T10:08:25;2.42;;;1.45;;
48835;SDS011;62581;47.342;7.908;2022-09-21T10:10:54;4.82;;;1.80;;
48835;SDS011;62581;47.342;7.908;2022-09-21T10:13:24;4.43;;;1.60;;
48835;SDS011;62581;47.342;7.908;2022-09-21T10:15:54;4.97;;;1.83;;
48835;SDS011;62581;47.342;7.908;2022-09-21T10:18:25;2.25;;;1.50;;
48835;SDS011;62581;47.342;7.908;2022-09-21T10:20:57;2.90;;;1.88;;
48835;SDS011;62581;47.342;7.908;2022-09-21T10:23:27;6.00;;;1.90;;
48835;SDS011;62581;47.342;7.908;2022-09-21T10:25:56;5.20;;;1.75;;
48835;SDS011;62581;47.342;7.908;2022-09-21T10:28:29;6.38;;;1.83;;
48835;SDS011;62581;47.342;7.908;2022-09-21T10:31:07;5.85;;;2.00;;
48835;SDS011;62581;47.342;7.908;2022-09-21T10:33:46;5.95;;;1.73;;
48835;SDS011;62581;47.342;7.908;2022-09-21T10:36:28;6.47;;;1.98;;
48835;SDS011;62581;47.342;7.908;2022-09-21T10:39:09;3.67;;;1.90;;
48835;SDS011;62581;47.342;7.908;2022-09-21T10:41:48;3.83;;;1.77;;
48835;SDS011;62581;47.342;7.908;2022-09-21T10:44:18;6.72;;;2.08;;
48835;SDS011;62581;47.342;7.908;2022-09-21T10:46:48;3.78;;;1.75;;
48835;SDS011;62581;47.342;7.908;2022-09-21T10:49:19;3.77;;;1.57;;
48835;SDS011;62581;47.342;7.908;2022-09-21T10:51:48;6.40;;;1.85;;
48835;SDS011;62581;47.342;7.908;2022-09-21T10:54:19;5.32;;;1.95;;
48835;SDS011;62581;47.342;7.908;2022-09-21T10:56:49;8.85;;;2.65;;
48835;SDS011;62581;47.342;7.908;2022-09-21T10:59:21;3.13;;;1.73;;
48835;SDS011;62581;47.342;7.908;2022-09-21T11:01:51;7.85;;;2.03;;
48835;SDS011;62581;47.342;7.908;2022-09-21T11:04:22;4.80;;;1.50;;
48835;SDS011;62581;47.342;7.908;2022-09-21T11:07:01;6.45;;;1.88;;
48835;SDS011;62581;47.342;7.908;2022-09-21T11:09:35;4.28;;;1.90;;
48835;SDS011;62581;47.342;7.908;2022-09-21T11:12:08;5.82;;;1.65;;
48835;SDS011;62581;47.342;7.908;2022-09-21T11:17:28;4.28;;;1.45;;
48835;SDS011;62581;47.342;7.908;2022-09-21T11:20:03;2.78;;;1.50;;
48835;SDS011;62581;47.342;7.908;2022-09-21T11:22:40;5.50;;;1.27;;
48835;SDS011;62581;47.342;7.908;2022-09-21T11:25:17;3.97;;;1.48;;
48835;SDS011;62581;47.342;7.908;2022-09-21T11:27:55;4.78;;;1.83;;
48835;SDS011;62581;47.342;7.908;2022-09-21T11:30:43;6.38;;;1.48;;
48835;SDS011;62581;47.342;7.908;2022-09-21T11:33:26;3.15;;;1.63;;
48835;SDS011;62581;47.342;7.908;2022-09-21T11:36:06;3.75;;;1.42;;
48835;SDS011;62581;47.342;7.908;2022-09-21T11:38:45;5.90;;;1.73;;
48835;SDS011;62581;47.342;7.908;2022-09-21T11:41:39;2.20;;;1.10;;
48835;SDS011;62581;47.342;7.908;2022-09-21T11:44:20;3.13;;;1.63;;
48835;SDS011;62581;47.342;7.908;2022-09-21T11:47:01;3.90;;;1.60;;
48835;SDS011;62581;47.342;7.908;2022-09-21T11:49:46;4.07;;;1.17;;
48835;SDS011;62581;47.342;7.908;2022-09-21T11:52:31;8.00;;;1.58;;
48835;SDS011;62581;47.342;7.908;2022-09-21T11:57:48;2.17;;;0.95;;
48835;SDS011;62581;47.342;7.908;2022-09-21T12:00:21;4.10;;;1.40;;
48835;SDS011;62581;47.342;7.908;2022-09-21T12:06:05;1.27;;;1.00;;
48835;SDS011;62581;47.342;7.908;2022-09-21T12:08:53;2.22;;;1.20;;
48835;SDS011;62581;47.342;7.908;2022-09-21T12:11:49;2.77;;;1.30;;
48835;SDS011;62581;47.342;7.908;2022-09-21T12:14:25;4.45;;;1.40;;
48835;SDS011;62581;47.342;7.908;2022-09-21T12:16:59;1.52;;;0.90;;
48835;SDS011;62581;47.342;7.908;2022-09-21T12:19:35;1.50;;;0.85;;
48835;SDS011;62581;47.342;7.908;2022-09-21T12:22:08;2.70;;;1.05;;
48835;SDS011;62581;47.342;7.908;2022-09-21T12:24:42;5.10;;;1.10;;
48835;SDS011;62581;47.342;7.908;2022-09-21T12:27:15;1.55;;;0.90;;
48835;SDS011;62581;47.342;7.908;2022-09-21T12:29:47;2.58;;;1.10;;
48835;SDS011;62581;47.342;7.908;2022-09-21T12:32:18;2.50;;;1.00;;
48835;SDS011;62581;47.342;7.908;2022-09-21T12:34:52;3.22;;;0.90;;
48835;SDS011;62581;47.342;7.908;2022-09-21T12:37:22;4.47;;;0.75;;
48835;SDS011;62581;47.342;7.908;2022-09-21T12:39:57;2.90;;;0.70;;
48835;SDS011;62581;47.342;7.908;2022-09-21T12:42:32;5.97;;;0.88;;
48835;SDS011;62581;47.342;7.908;2022-09-21T12:45:10;3.70;;;0.85;;
48835;SDS011;62581;47.342;7.908;2022-09-21T12:47:44;3.05;;;0.95;;
48835;SDS011;62581;47.342;7.908;2022-09-21T12:50:20;2.58;;;1.00;;
48835;SDS011;62581;47.342;7.908;2022-09-21T12:52:52;2.95;;;0.90;;
48835;SDS011;62581;47.342;7.908;2022-09-21T12:57:57;1.45;;;0.82;;
48835;SDS011;62581;47.342;7.908;2022-09-21T13:00:33;4.32;;;1.40;;
48835;SDS011;62581;47.342;7.908;2022-09-21T13:03:07;1.98;;;0.80;;
48835;SDS011;62581;47.342;7.908;2022-09-21T13:05:52;1.38;;;0.73;;
48835;SDS011;62581;47.342;7.908;2022-09-21T13:08:46;1.40;;;0.73;;
48835;SDS011;62581;47.342;7.908;2022-09-21T13:11:15;4.10;;;0.70;;
48835;SDS011;62581;47.342;7.908;2022-09-21T13:13:46;4.28;;;0.73;;
48835;SDS011;62581;47.342;7.908;2022-09-21T13:16:21;4.00;;;0.90;;
48835;SDS011;62581;47.342;7.908;2022-09-21T13:18:53;8.82;;;1.00;;
48835;SDS011;62581;47.342;7.908;2022-09-21T13:21:25;1.42;;;0.70;;
48835;SDS011;62581;47.342;7.908;2022-09-21T13:23:55;2.58;;;0.80;;
48835;SDS011;62581;47.342;7.908;2022-09-21T13:26:30;2.65;;;1.00;;
48835;SDS011;62581;47.342;7.908;2022-09-21T13:29:05;2.35;;;0.70;;
48835;SDS011;62581;47.342;7.908;2022-09-21T13:31:56;2.15;;;0.80;;
48835;SDS011;62581;47.342;7.908;2022-09-21T13:34:27;2.80;;;0.75;;
48835;SDS011;62581;47.342;7.908;2022-09-21T13:37:19;2.05;;;0.70;;
48835;SDS011;62581;47.342;7.908;2022-09-21T13:49:29;2.10;;;0.80;;
48835;SDS011;62581;47.342;7.908;2022-09-21T13:52:00;3.08;;;0.55;;
48835;SDS011;62581;47.342;7.908;2022-09-21T13:54:32;2.67;;;0.63;;
48835;SDS011;62581;47.342;7.908;2022-09-21T13:57:03;1.77;;;0.75;;
48835;SDS011;62581;47.342;7.908;2022-09-21T13:59:39;3.05;;;1.70;;
48835;SDS011;62581;47.342;7.908;2022-09-21T14:02:17;1.70;;;0.47;;
48835;SDS011;62581;47.342;7.908;2022-09-21T14:04:50;2.03;;;0.80;;
48835;SDS011;62581;47.342;7.908;2022-09-21T14:07:17;1.73;;;0.73;;
48835;SDS011;62581;47.342;7.908;2022-09-21T14:09:51;2.08;;;0.98;;
48835;SDS011;62581;47.342;7.908;2022-09-21T14:12:22;2.42;;;0.60;;
48835;SDS011;62581;47.342;7.908;2022-09-21T14:15:08;5.18;;;0.85;;
48835;SDS011;62581;47.342;7.908;2022-09-21T14:27:04;6.43;;;1.05;;
48835;SDS011;62581;47.342;7.908;2022-09-21T14:32:13;2.20;;;0.70;;
48835;SDS011;62581;47.342;7.908;2022-09-21T14:34:44;3.83;;;0.80;;
48835;SDS011;62581;47.342;7.908;2022-09-21T14:37:19;31.20;;;2.25;;
48835;SDS011;62581;47.342;7.908;2022-09-21T14:39:51;1.98;;;0.75;;
48835;SDS011;62581;47.342;7.908;2022-09-21T14:42:22;4.55;;;0.60;;
48835;SDS011;62581;47.342;7.908;2022-09-21T14:44:54;3.17;;;0.80;;
48835;SDS011;62581;47.342;7.908;2022-09-21T14:50:24;4.55;;;1.00;;
48835;SDS011;62581;47.342;7.908;2022-09-21T14:53:12;1.48;;;0.70;;
48835;SDS011;62581;47.342;7.908;2022-09-21T14:56:07;3.00;;;0.90;;
48835;SDS011;62581;47.342;7.908;2022-09-21T14:59:05;3.08;;;0.90;;
48835;SDS011;62581;47.342;7.908;2022-09-21T15:01:53;5.57;;;0.90;;
48835;SDS011;62581;47.342;7.908;2022-09-21T15:04:30;3.03;;;0.80;;
48835;SDS011;62581;47.342;7.908;2022-09-21T15:07:10;2.08;;;0.70;;
48835;SDS011;62581;47.342;7.908;2022-09-21T15:10:14;1.40;;;0.70;;
48835;SDS011;62581;47.342;7.908;2022-09-21T15:13:13;1.48;;;0.80;;
48835;SDS011;62581;47.342;7.908;2022-09-21T15:15:55;3.60;;;1.45;;
48835;SDS011;62581;47.342;7.908;2022-09-21T15:18:31;1.17;;;0.77;;
48835;SDS011;62581;47.342;7.908;2022-09-21T15:21:01;2.13;;;1.00;;
48835;SDS011;62581;47.342;7.908;2022-09-21T15:23:31;1.48;;;0.70;;
48835;SDS011;62581;47.342;7.908;2022-09-21T15:25:59;0.95;;;0.40;;
48835;SDS011;62581;47.342;7.908;2022-09-21T15:28:29;1.58;;;0.63;;
48835;SDS011;62581;47.342;7.908;2022-09-21T15:31:03;5.05;;;2.22;;
48835;SDS011;62581;47.342;7.908;2022-09-21T15:33:34;3.50;;;0.85;;
48835;SDS011;62581;47.342;7.908;2022-09-21T15:36:03;2.38;;;1.05;;
48835;SDS011;62581;47.342;7.908;2022-09-21T15:38:33;1.77;;;0.70;;
48835;SDS011;62581;47.342;7.908;2022-09-21T15:41:03;1.50;;;0.60;;
48835;SDS011;62581;47.342;7.908;2022-09-21T15:43:31;1.65;;;0.77;;
48835;SDS011;62581;47.342;7.908;2022-09-21T15:45:59;3.03;;;1.08;;
48835;SDS011;62581;47.342;7.908;2022-09-21T15:48:31;2.00;;;0.93;;
48835;SDS011;62581;47.342;7.908;2022-09-21T15:51:01;1.63;;;0.85;;
48835;SDS011;62581;47.342;7.908;2022-09-21T15:53:37;3.20;;;0.80;;
48835;SDS011;62581;47.342;7.908;2022-09-21T15:56:13;1.75;;;0.75;;
48835;SDS011;62581;47.342;7.908;2022-09-21T15:58:44;3.17;;;0.75;;
48835;SDS011;62581;47.342;7.908;2022-09-21T16:01:14;8.43;;;0.88;;